Time;durP1;ratioP1;P1;durP2;ratioP2;P2;SDS_P1;SDS_P2;PMS_P1;PMS_P2;Temp;Humidity;BMP_temperature;BMP_pressure;BME280_temperature;BME280_humidity;BME280_pressure;Samples;Min_cycle;Max_cycle;Signal;HPM_P1;HPM_P2
2022/01/23 00:00:17;;;;;;;28.80;19.48;;;4.40;99.90;;;;;;5042697;28;20029;-87
2022/01/23 00:02:44;;;;;;;30.35;18.65;;;4.40;99.90;;;;;;5042916;28;20037;-87
2022/01/23 00:05:10;;;;;;;28.92;19.33;;;4.40;99.90;;;;;;5042634;28;20101;-88
2022/01/23 00:07:36;;;;;;;34.13;20.02;;;4.40;99.90;;;;;;5043202;28;20091;-88
2022/01/23 00:10:06;;;;;;;28.27;18.73;;;4.40;99.90;;;;;;5042464;28;20013;-88
2022/01/23 00:12:39;;;;;;;27.58;19.13;;;4.40;99.90;;;;;;5042606;28;20029;-88
2022/01/23 00:17:49;;;;;;;28.00;17.98;;;4.30;99.90;;;;;;5044431;28;20036;-88
2022/01/23 00:20:15;;;;;;;32.45;18.98;;;4.20;99.90;;;;;;5042393;28;20041;-87
2022/01/23 00:22:45;;;;;;;29.20;18.13;;;4.20;99.90;;;;;;5042917;28;20037;-88
2022/01/23 00:30:42;;;;;;;29.17;18.92;;;4.00;99.90;;;;;;5043642;28;20177;-88
2022/01/23 00:33:10;;;;;;;33.60;19.85;;;4.00;99.90;;;;;;5042526;28;20052;-88
2022/01/23 00:35:37;;;;;;;32.30;19.23;;;3.90;99.90;;;;;;5042435;28;20272;-88
2022/01/23 00:38:05;;;;;;;31.17;19.77;;;3.90;99.90;;;;;;5042873;28;20180;-88
2022/01/23 00:40:33;;;;;;;31.92;19.33;;;3.90;99.90;;;;;;5042542;28;20025;-88
2022/01/23 00:43:00;;;;;;;31.02;19.88;;;4.00;99.90;;;;;;5043667;28;20053;-88
2022/01/23 00:45:41;;;;;;;32.30;19.92;;;4.00;99.90;;;;;;5043301;28;20021;-87
2022/01/23 00:48:08;;;;;;;32.20;20.75;;;3.90;99.90;;;;;;5043201;28;20088;-88
2022/01/23 00:50:40;;;;;;;34.95;22.67;;;3.90;99.90;;;;;;5042107;28;20032;-88
2022/01/23 00:53:10;;;;;;;31.30;20.05;;;3.90;99.90;;;;;;5042220;28;20318;-88
2022/01/23 00:55:38;;;;;;;36.38;21.80;;;3.90;99.90;;;;;;5043548;28;20022;-88
2022/01/23 00:58:04;;;;;;;35.83;21.67;;;4.00;99.90;;;;;;5041939;28;20021;-87
2022/01/23 01:00:30;;;;;;;33.45;21.05;;;4.00;99.90;;;;;;5043326;28;20364;-88
2022/01/23 01:02:58;;;;;;;32.40;21.20;;;4.00;99.90;;;;;;5042484;28;20029;-88
2022/01/23 01:05:26;;;;;;;37.53;21.50;;;4.00;99.90;;;;;;5043349;28;20022;-88
2022/01/23 01:07:56;;;;;;;32.53;20.40;;;4.00;99.90;;;;;;5042049;28;20116;-87
2022/01/23 01:10:31;;;;;;;33.30;20.50;;;4.00;99.90;;;;;;5042706;28;20048;-88
2022/01/23 01:13:00;;;;;;;34.92;20.95;;;3.90;99.90;;;;;;5042722;28;20172;-88
2022/01/23 01:31:19;;;;;;;34.20;21.85;;;4.20;99.90;;;;;;5042644;28;20068;-88
2022/01/23 01:33:56;;;;;;;35.38;21.58;;;4.20;99.90;;;;;;5041733;28;20275;-87
2022/01/23 01:38:48;;;;;;;31.55;20.50;;;4.20;99.90;;;;;;5042774;28;20064;-87
2022/01/23 01:41:15;;;;;;;31.50;19.98;;;4.20;99.90;;;;;;5042479;28;20022;-87
2022/01/23 01:43:41;;;;;;;32.20;20.88;;;4.20;99.90;;;;;;5042074;28;20257;-87
2022/01/23 01:46:07;;;;;;;34.10;20.77;;;4.10;99.90;;;;;;5041271;28;20070;-88
2022/01/23 01:48:32;;;;;;;33.90;20.70;;;4.10;99.90;;;;;;5041259;28;20033;-87
2022/01/23 01:51:00;;;;;;;31.20;21.35;;;4.10;99.90;;;;;;5042432;28;20278;-87
2022/01/23 01:53:26;;;;;;;35.45;21.75;;;4.00;99.90;;;;;;5040995;28;20037;-87
2022/01/23 01:55:55;;;;;;;33.53;20.48;;;4.00;99.90;;;;;;5042659;28;20025;-87
2022/01/23 02:02:43;;;;;;;34.97;20.73;;;4.00;99.90;;;;;;5040169;28;20033;-87
2022/01/23 02:09:32;;;;;;;36.35;21.95;;;3.90;99.90;;;;;;5041329;28;20386;-87
2022/01/23 02:15:11;;;;;;;39.40;22.90;;;4.00;99.90;;;;;;5041712;28;20337;-87
2022/01/23 02:50:35;;;;;;;40.40;22.30;;;4.00;99.90;;;;;;5041290;28;20029;-87
2022/01/23 02:55:45;;;;;;;40.37;24.60;;;4.20;99.90;;;;;;5040844;28;20022;-88
2022/01/23 02:58:13;;;;;;;37.33;22.80;;;4.30;99.90;;;;;;5041418;28;20025;-87
2022/01/23 03:00:59;;;;;;;35.90;22.55;;;4.30;99.90;;;;;;5040678;28;20017;-88
2022/01/23 03:03:25;;;;;;;35.03;21.92;;;4.20;99.90;;;;;;5041157;28;20037;-87
2022/01/23 03:11:28;;;;;;;37.38;23.45;;;4.10;99.90;;;;;;5040791;28;20034;-87
2022/01/23 03:14:11;;;;;;;;;;;4.20;99.90;;;;;;5040092;28;20026;-88
2022/01/23 03:30:13;;;;;;;40.75;23.38;;;4.20;99.90;;;;;;5041080;28;20029;-87
2022/01/23 03:32:43;;;;;;;38.58;23.60;;;4.20;99.90;;;;;;5039005;28;20222;-88
2022/01/23 03:35:09;;;;;;;40.65;23.88;;;4.30;99.90;;;;;;5040660;28;20023;-88
2022/01/23 03:37:35;;;;;;;41.03;23.63;;;4.30;99.90;;;;;;5040436;28;20037;-87
2022/01/23 03:40:01;;;;;;;36.08;24.00;;;4.20;99.90;;;;;;5039172;28;20284;-87
2022/01/23 03:42:28;;;;;;;41.30;24.45;;;4.20;99.90;;;;;;5039637;28;20083;-88
2022/01/23 03:45:50;;;;;;;41.92;24.08;;;4.20;99.90;;;;;;5039334;28;20281;-87
2022/01/23 03:50:29;;;;;;;38.65;22.63;;;4.30;99.90;;;;;;5040635;28;20036;-88
2022/01/23 03:52:55;;;;;;;45.22;25.25;;;4.30;99.90;;;;;;5039567;28;20022;-88
2022/01/23 03:55:20;;;;;;;37.70;24.80;;;4.30;99.90;;;;;;5040640;28;20222;-88
2022/01/23 03:57:46;;;;;;;42.92;24.77;;;4.30;99.90;;;;;;5039287;28;20009;-87
2022/01/23 04:00:15;;;;;;;41.20;24.67;;;4.30;99.90;;;;;;5040138;28;20306;-87
2022/01/23 04:02:41;;;;;;;33.80;23.45;;;4.30;99.90;;;;;;5041120;28;20025;-88
2022/01/23 04:05:07;;;;;;;34.53;24.08;;;4.30;99.90;;;;;;5040417;28;20032;-88
2022/01/23 04:07:34;;;;;;;35.80;22.92;;;4.20;99.90;;;;;;5040065;28;20021;-88
2022/01/23 04:10:00;;;;;;;35.40;24.38;;;4.20;99.90;;;;;;5040323;28;20217;-88
2022/01/23 04:15:01;;;;;;;38.22;25.67;;;4.30;99.90;;;;;;5039955;28;20100;-88
2022/01/23 04:33:44;;;;;;;41.33;23.80;;;4.30;99.90;;;;;;5039980;28;20047;-87
2022/01/23 05:01:16;;;;;;;;;;;4.30;99.90;;;;;;5043562;28;20032;-87
2022/01/23 05:06:04;;;;;;;41.42;24.70;;;4.30;99.90;;;;;;5042931;28;20192;-87
2022/01/23 05:08:33;;;;;;;40.95;25.85;;;4.30;99.90;;;;;;5043475;28;20344;-88
2022/01/23 05:11:00;;;;;;;40.92;26.05;;;4.30;99.90;;;;;;5041563;28;20035;-88
2022/01/23 05:13:30;;;;;;;43.90;26.65;;;4.30;99.90;;;;;;5043235;28;20317;-88
2022/01/23 05:15:56;;;;;;;40.13;25.70;;;4.30;99.90;;;;;;5041771;28;20029;-88
2022/01/23 05:18:22;;;;;;;39.28;25.17;;;4.30;99.90;;;;;;5042832;28;20044;-88
2022/01/23 05:20:54;;;;;;;40.38;25.48;;;4.30;99.90;;;;;;5041626;28;20021;-88
2022/01/23 05:23:20;;;;;;;41.35;25.63;;;4.20;99.90;;;;;;5042803;28;20033;-88
2022/01/23 05:25:45;;;;;;;45.75;25.50;;;4.30;99.90;;;;;;5041085;28;20369;-87
2022/01/23 05:28:11;;;;;;;42.10;26.48;;;4.30;99.90;;;;;;5042541;28;20301;-88
2022/01/23 05:30:38;;;;;;;55.95;26.70;;;4.30;99.90;;;;;;5042102;28;20025;-87
2022/01/23 05:33:04;;;;;;;43.20;26.05;;;4.40;99.90;;;;;;5043045;28;20017;-87
2022/01/23 05:35:30;;;;;;;41.60;26.23;;;4.30;99.90;;;;;;5042615;28;20037;-87
2022/01/23 05:37:56;;;;;;;41.80;25.23;;;4.20;99.90;;;;;;5041755;28;20321;-87
2022/01/23 05:40:25;;;;;;;205.77;40.55;;;4.20;99.90;;;;;;5041410;28;20040;-88
2022/01/23 05:42:51;;;;;;;43.33;27.58;;;4.20;99.90;;;;;;5041126;28;20045;-87
2022/01/23 05:45:17;;;;;;;43.45;25.40;;;4.20;99.90;;;;;;5041191;28;20031;-87
2022/01/23 05:47:43;;;;;;;41.00;26.00;;;4.20;99.90;;;;;;5041038;28;20097;-88
2022/01/23 05:50:09;;;;;;;37.58;25.00;;;4.20;99.90;;;;;;5040268;28;20029;-87
2022/01/23 05:52:36;;;;;;;38.30;24.85;;;4.30;99.90;;;;;;5042178;28;20026;-88
2022/01/23 05:55:03;;;;;;;41.28;24.63;;;4.30;99.90;;;;;;5040945;28;20191;-88
2022/01/23 05:57:29;;;;;;;40.95;25.95;;;4.20;99.90;;;;;;5041651;28;20029;-88
2022/01/23 05:59:55;;;;;;;43.45;25.95;;;4.20;99.90;;;;;;5041746;28;20306;-87
2022/01/23 06:02:20;;;;;;;43.45;26.05;;;4.20;99.90;;;;;;5042222;28;20072;-88
2022/01/23 06:04:46;;;;;;;37.85;25.42;;;4.20;99.90;;;;;;5035544;28;20083;-87
2022/01/23 06:07:12;;;;;;;40.90;25.17;;;4.20;99.90;;;;;;5040890;28;20029;-88
2022/01/23 06:09:39;;;;;;;39.40;25.73;;;4.20;99.90;;;;;;5042616;28;20021;-88
2022/01/23 06:12:06;;;;;;;39.70;24.40;;;4.20;99.90;;;;;;5040956;28;20021;-88
2022/01/23 06:14:31;;;;;;;38.22;25.08;;;4.20;99.90;;;;;;5042432;28;20198;-88
2022/01/23 06:16:57;;;;;;;40.80;27.30;;;4.20;99.90;;;;;;5041696;28;20043;-87
2022/01/23 06:19:23;;;;;;;39.08;25.35;;;4.20;99.90;;;;;;5040661;28;20241;-87
2022/01/23 06:21:48;;;;;;;41.30;25.17;;;4.20;99.90;;;;;;5040303;28;20271;-87
2022/01/23 06:24:26;;;;;;;42.67;27.00;;;4.30;99.90;;;;;;5040108;28;20022;-88
2022/01/23 06:26:54;;;;;;;38.08;25.77;;;4.20;99.90;;;;;;5041219;28;20100;-87
2022/01/23 06:29:21;;;;;;;40.85;24.90;;;4.20;99.90;;;;;;5041721;28;20029;-88
2022/01/23 06:31:48;;;;;;;43.05;26.38;;;4.20;99.90;;;;;;5040353;28;20025;-88
2022/01/23 06:34:16;;;;;;;44.33;25.83;;;4.30;99.90;;;;;;5040639;28;20021;-89
2022/01/23 06:36:42;;;;;;;56.80;29.00;;;4.30;99.90;;;;;;5040279;28;20148;-88
2022/01/23 06:39:11;;;;;;;41.08;25.92;;;4.30;99.90;;;;;;5041247;28;20083;-87
2022/01/23 06:41:37;;;;;;;40.55;26.17;;;4.30;99.90;;;;;;5023984;28;20037;-88
2022/01/23 06:44:04;;;;;;;42.97;25.90;;;4.40;99.90;;;;;;5040232;28;20128;-87
2022/01/23 06:46:31;;;;;;;43.40;26.52;;;4.30;99.90;;;;;;5042279;28;20110;-88
2022/01/23 06:48:57;;;;;;;42.40;26.35;;;4.30;99.90;;;;;;5042125;28;20306;-88
2022/01/23 06:51:23;;;;;;;48.60;27.58;;;4.40;99.90;;;;;;5041150;28;20049;-88
2022/01/23 06:53:49;;;;;;;42.95;25.80;;;4.40;99.90;;;;;;5041884;28;20013;-87
2022/01/23 06:56:15;;;;;;;41.58;25.90;;;4.40;99.90;;;;;;5042001;28;20323;-88
2022/01/23 06:58:40;;;;;;;41.70;24.75;;;4.40;99.90;;;;;;5040303;28;20351;-87
2022/01/23 07:01:07;;;;;;;172.43;37.08;;;4.30;99.90;;;;;;5039468;28;20032;-87
2022/01/23 07:03:34;;;;;;;37.38;24.95;;;4.30;99.90;;;;;;5039686;28;20041;-88
2022/01/23 07:06:00;;;;;;;57.85;25.80;;;4.20;99.90;;;;;;5043300;28;20022;-87
2022/01/23 07:08:26;;;;;;;96.78;29.35;;;4.20;99.90;;;;;;5043317;28;20037;-88
2022/01/23 07:10:52;;;;;;;41.08;25.73;;;4.20;99.90;;;;;;5041922;28;20313;-87
2022/01/23 07:13:17;;;;;;;41.38;23.83;;;4.20;99.90;;;;;;5042451;28;20033;-85
2022/01/23 07:15:47;;;;;;;40.60;25.10;;;4.20;99.90;;;;;;5043010;28;20049;-87
2022/01/23 07:18:13;;;;;;;42.28;25.25;;;4.20;99.90;;;;;;5037691;28;20017;-85
2022/01/23 07:20:38;;;;;;;37.13;24.08;;;4.20;99.90;;;;;;5031973;28;20029;-85
2022/01/23 07:23:04;;;;;;;38.85;24.13;;;4.20;99.90;;;;;;5032339;28;20029;-85
2022/01/23 07:25:30;;;;;;;35.53;24.17;;;4.20;99.90;;;;;;5032796;28;20056;-85
2022/01/23 07:27:58;;;;;;;36.95;23.77;;;4.20;99.90;;;;;;5032328;28;20406;-85
2022/01/23 07:30:46;;;;;;;40.28;24.17;;;4.20;99.90;;;;;;5032369;28;20018;-86
2022/01/23 07:33:12;;;;;;;36.47;22.90;;;4.30;99.90;;;;;;5032143;28;20025;-85
2022/01/23 07:35:38;;;;;;;39.75;24.38;;;4.20;99.90;;;;;;5032026;28;20021;-85
2022/01/23 07:38:04;;;;;;;38.45;23.88;;;4.30;99.90;;;;;;5036888;28;20025;-86
2022/01/23 07:40:29;;;;;;;36.42;22.83;;;4.20;99.90;;;;;;5040918;28;20060;-85
2022/01/23 07:42:55;;;;;;;42.47;25.23;;;4.20;99.90;;;;;;5042809;28;20059;-85
2022/01/23 07:45:21;;;;;;;38.38;24.60;;;4.20;99.90;;;;;;5040545;28;20021;-86
2022/01/23 07:47:46;;;;;;;39.55;24.35;;;4.20;99.90;;;;;;5042865;28;20029;-85
2022/01/23 07:50:12;;;;;;;40.67;24.00;;;4.20;99.90;;;;;;5043440;28;20014;-86
2022/01/23 07:52:39;;;;;;;36.08;24.08;;;4.20;99.90;;;;;;5046899;28;20077;-86
2022/01/23 07:55:12;;;;;;;42.35;25.10;;;4.20;99.90;;;;;;5049765;28;20032;-86
2022/01/23 07:57:39;;;;;;;37.53;23.33;;;4.30;99.90;;;;;;5049636;28;20056;-85
2022/01/23 08:00:10;;;;;;;36.88;24.45;;;4.20;99.90;;;;;;5050114;28;20017;-86
2022/01/23 08:02:35;;;;;;;41.13;24.27;;;4.20;99.90;;;;;;5049323;28;20045;-86
2022/01/23 08:05:02;;;;;;;37.83;23.45;;;4.30;99.90;;;;;;5048194;28;20021;-86
2022/01/23 08:09:56;;;;;;;69.57;26.88;;;4.30;99.90;;;;;;5032550;28;20022;-89
2022/01/23 08:12:26;;;;;;;36.03;23.95;;;4.30;99.90;;;;;;5035017;28;20024;-87
2022/01/23 08:14:52;;;;;;;36.00;23.40;;;4.30;99.90;;;;;;5038505;28;20064;-89
2022/01/23 08:17:19;;;;;;;37.83;23.88;;;4.30;99.90;;;;;;5035175;28;20464;-88
2022/01/23 08:19:45;;;;;;;39.80;24.50;;;4.40;99.90;;;;;;5033146;28;20112;-87
2022/01/23 08:22:11;;;;;;;45.10;25.73;;;4.40;99.90;;;;;;5039022;28;20041;-88
2022/01/23 08:24:37;;;;;;;36.78;24.17;;;4.50;99.90;;;;;;5039256;28;20072;-87
2022/01/23 08:27:03;;;;;;;38.30;24.65;;;4.50;99.90;;;;;;5033065;28;20022;-87
2022/01/23 08:29:29;;;;;;;41.72;24.35;;;4.50;99.90;;;;;;5034211;28;20048;-85
2022/01/23 08:31:54;;;;;;;42.30;24.23;;;4.50;99.90;;;;;;5034824;28;20469;-88
2022/01/23 08:34:20;;;;;;;37.97;23.17;;;4.60;99.90;;;;;;5033997;28;20025;-88
2022/01/23 08:36:46;;;;;;;34.88;23.15;;;4.60;99.90;;;;;;5032710;28;20087;-88
2022/01/23 08:39:12;;;;;;;39.50;24.75;;;4.60;99.90;;;;;;5035625;28;20088;-88
2022/01/23 08:41:50;;;;;;;37.05;23.73;;;4.70;99.90;;;;;;5033628;28;20079;-88
2022/01/23 08:44:20;;;;;;;37.17;23.55;;;4.60;99.90;;;;;;5037919;28;20049;-88
2022/01/23 08:46:46;;;;;;;38.30;23.08;;;4.60;99.90;;;;;;5033228;28;20021;-88
2022/01/23 08:49:11;;;;;;;39.90;24.52;;;4.60;99.90;;;;;;5033188;28;20087;-88
2022/01/23 08:51:37;;;;;;;41.05;24.35;;;4.60;99.90;;;;;;5039439;28;20024;-88
2022/01/23 08:54:04;;;;;;;37.15;23.55;;;4.60;99.90;;;;;;5034100;28;20512;-89
2022/01/23 08:56:30;;;;;;;34.95;23.77;;;4.60;99.90;;;;;;5033425;28;20533;-88
2022/01/23 08:58:56;;;;;;;39.45;24.42;;;4.70;99.90;;;;;;5033504;28;20026;-88
2022/01/23 09:01:23;;;;;;;40.92;24.80;;;4.70;99.90;;;;;;5032246;28;20026;-88
2022/01/23 09:03:49;;;;;;;43.58;25.15;;;4.70;99.90;;;;;;5032800;28;20033;-88
2022/01/23 09:06:15;;;;;;;39.60;23.90;;;4.80;99.90;;;;;;5031355;28;20029;-88
2022/01/23 09:08:41;;;;;;;41.78;25.10;;;4.80;99.90;;;;;;5033561;28;20021;-86
2022/01/23 09:11:23;;;;;;;40.70;25.98;;;4.90;99.90;;;;;;5032630;28;20021;-86
2022/01/23 09:16:15;;;;;;;34.80;23.70;;;5.00;99.90;;;;;;5033066;28;20112;-86
2022/01/23 09:18:41;;;;;;;36.25;23.92;;;5.00;99.90;;;;;;5032483;28;20033;-87
2022/01/23 09:21:06;;;;;;;34.95;21.70;;;5.00;99.90;;;;;;5033377;28;20041;-86
2022/01/23 09:23:33;;;;;;;32.83;22.48;;;5.10;99.90;;;;;;5034825;28;20135;-86
2022/01/23 09:26:03;;;;;;;37.47;23.75;;;5.10;99.90;;;;;;5032483;28;20021;-88
2022/01/23 09:28:32;;;;;;;35.65;23.45;;;5.20;99.90;;;;;;5033293;28;20498;-89
2022/01/23 09:31:00;;;;;;;36.78;23.58;;;5.20;99.90;;;;;;5036863;28;20048;-89
2022/01/23 09:33:26;;;;;;;37.97;23.73;;;5.20;99.90;;;;;;5032137;28;20507;-88
2022/01/23 09:35:52;;;;;;;36.80;24.45;;;5.20;99.90;;;;;;5030726;28;20017;-88
2022/01/23 09:38:18;;;;;;;35.95;24.35;;;5.30;99.90;;;;;;5030540;28;20437;-88
2022/01/23 09:40:45;;;;;;;35.60;23.20;;;5.40;99.90;;;;;;5030859;28;20496;-88
2022/01/23 09:43:19;;;;;;;35.95;23.10;;;5.50;99.90;;;;;;5031668;28;20501;-88
2022/01/23 09:45:46;;;;;;;;;;;5.50;99.90;;;;;;5031059;28;20063;-88
2022/01/23 09:48:12;;;;;;;31.60;21.02;;;5.60;99.90;;;;;;5030450;28;19912;-88
2022/01/23 09:50:38;;;;;;;36.25;23.52;;;5.70;99.90;;;;;;5030457;28;20030;-87
2022/01/23 09:53:05;;;;;;;32.20;22.40;;;5.70;99.90;;;;;;5031493;28;20025;-88
2022/01/23 09:55:33;;;;;;;34.95;21.60;;;5.70;99.90;;;;;;5031612;28;20029;-88
2022/01/23 09:58:00;;;;;;;34.45;21.80;;;5.60;99.90;;;;;;5031645;28;20595;-89
2022/01/23 10:00:30;;;;;;;38.22;22.05;;;5.70;99.90;;;;;;5031990;28;20563;-88
2022/01/23 10:02:57;;;;;;;36.72;23.55;;;5.70;99.90;;;;;;5031546;28;20037;-88
2022/01/23 10:05:23;;;;;;;34.40;22.13;;;5.60;99.90;;;;;;5030372;28;20025;-88
2022/01/23 10:07:52;;;;;;;36.67;23.77;;;5.60;99.90;;;;;;5031306;28;20033;-87
2022/01/23 10:10:23;;;;;;;38.75;24.13;;;5.40;99.90;;;;;;5031521;28;20030;-89
2022/01/23 10:12:54;;;;;;;37.13;23.83;;;5.30;99.90;;;;;;5030742;28;20026;-88
2022/01/23 10:15:21;;;;;;;34.50;23.42;;;5.20;99.90;;;;;;5030418;28;20033;-88
2022/01/23 10:17:47;;;;;;;37.88;22.42;;;5.20;99.90;;;;;;5030277;28;20567;-88
2022/01/23 10:20:14;;;;;;;35.72;22.70;;;5.20;99.90;;;;;;5030069;28;20021;-88
2022/01/23 10:22:44;;;;;;;37.30;22.88;;;5.10;99.90;;;;;;5029908;28;20033;-88
2022/01/23 10:25:13;;;;;;;37.03;23.55;;;5.10;99.90;;;;;;5031332;28;20040;-89
2022/01/23 10:28:03;;;;;;;34.78;23.50;;;5.10;99.90;;;;;;5031280;28;20028;-89
2022/01/23 10:30:38;;;;;;;40.78;23.88;;;5.10;99.90;;;;;;5029740;28;20025;-88
2022/01/23 10:33:16;;;;;;;34.58;23.35;;;5.30;99.90;;;;;;5029786;28;20034;-89
2022/01/23 10:36:05;;;;;;;37.53;22.23;;;5.50;99.90;;;;;;5030608;28;20482;-89
2022/01/23 10:38:56;;;;;;;36.22;22.10;;;5.60;99.90;;;;;;5029838;28;20028;-88
2022/01/23 10:49:50;;;;;;;43.13;24.25;;;5.90;99.90;;;;;;5030809;28;20263;-87
2022/01/23 10:52:35;;;;;;;38.17;22.15;;;5.90;99.90;;;;;;5030486;28;20032;-87
2022/01/23 10:55:23;;;;;;;36.70;21.83;;;5.70;99.90;;;;;;5030636;28;20441;-87
2022/01/23 10:57:51;;;;;;;37.58;22.80;;;5.70;99.90;;;;;;5030966;28;20086;-87
2022/01/23 11:00:30;;;;;;;37.55;22.45;;;5.70;99.90;;;;;;5030892;28;20079;-87
2022/01/23 11:02:58;;;;;;;35.38;21.63;;;5.70;99.90;;;;;;5029480;28;20120;-87
2022/01/23 11:05:41;;;;;;;33.75;21.48;;;5.80;99.90;;;;;;5030561;28;20482;-87
2022/01/23 11:08:30;;;;;;;32.53;21.42;;;5.90;99.90;;;;;;5029320;28;20088;-87
2022/01/23 11:11:05;;;;;;;35.22;21.55;;;6.00;99.90;;;;;;5029188;28;20053;-87
2022/01/23 11:19:41;;;;;;;33.60;21.02;;;6.40;99.90;;;;;;5030924;28;20032;-87
2022/01/23 11:22:16;;;;;;;33.95;21.10;;;6.50;99.90;;;;;;5029995;28;20033;-87
2022/01/23 11:24:45;;;;;;;35.17;24.27;;;6.50;99.90;;;;;;5030558;28;20026;-87
2022/01/23 11:27:11;;;;;;;33.08;20.98;;;6.60;99.90;;;;;;5030253;28;20075;-87
2022/01/23 11:29:51;;;;;;;29.80;20.05;;;6.70;99.90;;;;;;5028968;28;20049;-87
2022/01/23 11:32:18;;;;;;;32.42;21.30;;;6.90;99.90;;;;;;5030244;28;20026;-87
2022/01/23 11:34:45;;;;;;;30.70;20.92;;;7.00;99.90;;;;;;5030455;28;20029;-87
2022/01/23 11:37:13;;;;;;;28.95;19.58;;;7.20;99.90;;;;;;5030055;28;20032;-87
2022/01/23 11:39:46;;;;;;;35.17;20.58;;;7.20;99.90;;;;;;5030397;28;20090;-88
2022/01/23 11:56:26;;;;;;;32.78;20.48;;;7.40;99.90;;;;;;5034711;28;20056;-87
2022/01/23 11:59:22;;;;;;;32.60;20.58;;;7.50;99.90;;;;;;5034582;28;20033;-87
2022/01/23 12:02:08;;;;;;;36.10;22.52;;;7.50;99.90;;;;;;5032579;28;20303;-88
2022/01/23 12:04:34;;;;;;;36.00;21.63;;;7.50;99.90;;;;;;5032776;28;20025;-88
2022/01/23 12:07:12;;;;;;;29.33;19.42;;;7.50;99.90;;;;;;5033685;28;20030;-81
2022/01/23 12:09:41;;;;;;;31.95;19.67;;;7.60;99.90;;;;;;5034206;28;20021;-81
2022/01/23 12:12:36;;;;;;;34.92;19.83;;;7.80;99.90;;;;;;5033884;28;20072;-82
2022/01/23 12:18:25;;;;;;;29.17;18.48;;;8.00;99.90;;;;;;5034179;28;20117;-82
2022/01/23 12:20:52;;;;;;;30.42;19.92;;;8.00;99.90;;;;;;5033684;28;20021;-82
2022/01/23 12:23:19;;;;;;;29.27;19.88;;;8.10;99.90;;;;;;5033245;28;20437;-82
2022/01/23 12:26:07;;;;;;;31.05;19.10;;;8.10;99.90;;;;;;5034165;28;20021;-81
2022/01/23 12:28:43;;;;;;;31.92;19.40;;;8.10;99.90;;;;;;5032347;28;20036;-81
2022/01/23 12:31:14;;;;;;;31.70;19.75;;;8.00;99.90;;;;;;5033768;28;20021;-82
2022/01/23 12:33:40;;;;;;;28.38;19.17;;;8.10;99.90;;;;;;5033318;28;20029;-82
2022/01/23 12:36:07;;;;;;;31.02;19.52;;;8.20;99.90;;;;;;5033410;28;20026;-80
2022/01/23 12:38:47;;;;;;;30.00;18.75;;;8.40;99.90;;;;;;5032653;28;20053;-80
2022/01/23 12:41:26;;;;;;;30.58;18.17;;;8.40;99.90;;;;;;5033278;28;20026;-79
2022/01/23 12:44:02;;;;;;;30.17;18.73;;;8.60;99.90;;;;;;5033494;28;20042;-81
2022/01/23 12:46:41;;;;;;;31.17;18.20;;;8.60;99.90;;;;;;5033287;28;20022;-79
2022/01/23 12:49:15;;;;;;;27.70;18.60;;;8.60;99.90;;;;;;5033446;28;20562;-79
2022/01/23 12:51:42;;;;;;;27.27;17.67;;;8.50;99.90;;;;;;5032659;28;20025;-79
2022/01/23 12:54:09;;;;;;;30.23;18.92;;;8.30;99.90;;;;;;5032966;28;20404;-79
2022/01/23 12:56:43;;;;;;;27.38;17.95;;;8.40;99.90;;;;;;5032758;28;20026;-79
2022/01/23 12:59:12;;;;;;;28.27;18.42;;;8.50;99.90;;;;;;5032874;28;20063;-79
2022/01/23 13:01:44;;;;;;;29.33;19.10;;;8.50;99.90;;;;;;5033475;28;20101;-86
2022/01/23 13:04:10;;;;;;;30.73;18.67;;;8.50;99.90;;;;;;5033561;28;20029;-86
2022/01/23 13:06:51;;;;;;;34.58;18.83;;;8.50;99.90;;;;;;5032595;28;20020;-85
2022/01/23 13:15:21;;;;;;;33.50;18.33;;;8.70;99.90;;;;;;5032729;28;20386;-84
2022/01/23 13:17:50;;;;;;;27.73;17.63;;;8.80;99.90;;;;;;5032027;28;20029;-84
2022/01/23 13:29:52;;;;;;;28.50;17.50;;;8.70;99.90;;;;;;5032858;28;20048;-84
2022/01/23 13:31:49;;;;;;;27.83;17.65;;;8.70;99.90;;;;;;5032528;28;20282;-83
2022/01/23 13:34:35;;;;;;;29.13;17.85;;;8.70;99.90;;;;;;5032384;28;20033;-85
2022/01/23 13:37:10;;;;;;;28.33;18.80;;;8.90;99.90;;;;;;5031981;28;20045;-85
2022/01/23 13:39:45;;;;;;;29.42;17.52;;;8.90;99.90;;;;;;5032282;28;20041;-85
2022/01/23 13:59:47;;;;;;;29.20;16.40;;;8.80;99.90;;;;;;5032031;28;20048;-84
2022/01/23 14:02:24;;;;;;;28.25;17.20;;;8.70;99.90;;;;;;5032164;28;20409;-84
2022/01/23 14:05:13;;;;;;;26.50;16.23;;;8.70;99.90;;;;;;5030460;28;20030;-86
2022/01/23 14:07:53;;;;;;;25.95;16.63;;;8.80;99.90;;;;;;5023686;28;20030;-84
2022/01/23 14:10:35;;;;;;;27.73;17.35;;;8.80;99.90;;;;;;5030494;28;20116;-88
2022/01/23 14:13:15;;;;;;;27.08;16.67;;;8.60;99.90;;;;;;5033405;28;20025;-89
2022/01/23 14:15:51;;;;;;;29.35;17.67;;;8.60;99.90;;;;;;5031420;28;20025;-90
2022/01/23 14:18:24;;;;;;;30.77;16.27;;;8.70;99.90;;;;;;5035035;28;20550;-88
2022/01/23 14:20:55;;;;;;;29.05;16.27;;;8.70;99.90;;;;;;5032464;28;20514;-88
2022/01/23 14:23:21;;;;;;;25.70;15.57;;;8.70;99.90;;;;;;5031179;28;20132;-88
2022/01/23 14:25:58;;;;;;;25.55;15.40;;;8.70;99.90;;;;;;5030373;28;20116;-88
2022/01/23 14:28:28;;;;;;;23.08;15.18;;;8.50;99.90;;;;;;5046895;28;20026;-88
2022/01/23 14:31:01;;;;;;;23.95;15.50;;;8.50;99.90;;;;;;5030394;28;20490;-88
2022/01/23 14:33:33;;;;;;;23.75;14.35;;;8.50;99.90;;;;;;5031525;28;20104;-87
2022/01/23 14:36:11;;;;;;;26.30;15.55;;;8.40;99.90;;;;;;5031492;28;20296;-86
2022/01/23 14:38:37;;;;;;;24.55;15.10;;;8.30;99.90;;;;;;5030879;28;20018;-88
2022/01/23 14:41:10;;;;;;;24.08;14.43;;;8.30;99.90;;;;;;5030027;28;20095;-88
2022/01/23 14:43:39;;;;;;;24.65;15.75;;;8.30;99.90;;;;;;5031009;28;20059;-87
2022/01/23 14:46:10;;;;;;;23.90;14.43;;;8.30;99.90;;;;;;5029717;28;20025;-88
2022/01/23 14:48:47;;;;;;;26.65;16.10;;;8.50;99.90;;;;;;5029991;28;20025;-88
2022/01/23 14:51:21;;;;;;;32.03;15.43;;;8.50;99.90;;;;;;5031413;28;20044;-88
2022/01/23 14:53:48;;;;;;;25.80;14.85;;;8.50;99.90;;;;;;5032149;28;20458;-87
2022/01/23 14:56:14;;;;;;;27.15;15.98;;;8.50;99.90;;;;;;5031097;28;20458;-88
2022/01/23 14:58:42;;;;;;;25.48;15.85;;;8.50;99.90;;;;;;5031309;28;20096;-87
2022/01/23 15:01:10;;;;;;;25.17;15.02;;;8.50;99.90;;;;;;5030028;28;20063;-88
2022/01/23 15:03:37;;;;;;;23.65;15.88;;;8.40;99.90;;;;;;5030897;28;20512;-88
2022/01/23 15:06:05;;;;;;;24.90;15.50;;;8.30;99.90;;;;;;5029979;28;20454;-88
2022/01/23 15:08:31;;;;;;;26.48;16.60;;;8.20;99.90;;;;;;5029731;28;20436;-88
2022/01/23 15:10:59;;;;;;;28.38;15.70;;;8.20;99.90;;;;;;5030826;28;20045;-90
2022/01/23 15:13:27;;;;;;;25.45;15.68;;;8.20;99.90;;;;;;5031075;28;20026;-87
2022/01/23 15:15:54;;;;;;;28.50;16.20;;;8.00;99.90;;;;;;5031281;28;20025;-88
2022/01/23 15:18:20;;;;;;;26.67;15.05;;;7.90;99.90;;;;;;5030835;28;20068;-87
2022/01/23 15:20:47;;;;;;;27.50;15.57;;;7.80;99.90;;;;;;5030799;28;20030;-87
2022/01/23 15:23:14;;;;;;;27.42;15.45;;;7.80;99.90;;;;;;5030737;28;20037;-87
2022/01/23 15:25:41;;;;;;;25.25;15.90;;;7.90;99.90;;;;;;5031203;28;20021;-88
2022/01/23 15:28:08;;;;;;;23.58;14.15;;;7.90;99.90;;;;;;5030722;28;20033;-87
2022/01/23 15:30:36;;;;;;;31.92;14.85;;;7.80;99.90;;;;;;5029498;28;20493;-87
2022/01/23 15:33:03;;;;;;;24.23;14.85;;;7.70;99.90;;;;;;5030828;28;20029;-87
2022/01/23 15:35:29;;;;;;;23.02;14.48;;;7.60;99.90;;;;;;5030437;28;20018;-86
2022/01/23 15:37:55;;;;;;;25.42;14.88;;;7.60;99.90;;;;;;5030012;28;20103;-88
2022/01/23 15:40:22;;;;;;;20.63;13.60;;;7.60;99.90;;;;;;5030788;28;20045;-88
2022/01/23 15:42:52;;;;;;;20.85;13.13;;;7.50;99.90;;;;;;5030436;28;20064;-87
2022/01/23 15:45:20;;;;;;;28.95;15.82;;;7.50;99.90;;;;;;5029326;28;20382;-87
2022/01/23 15:47:46;;;;;;;22.67;14.63;;;7.40;99.90;;;;;;5045937;28;20031;-87
2022/01/23 15:50:14;;;;;;;23.05;13.32;;;7.20;99.90;;;;;;5030467;28;20025;-87
2022/01/23 15:52:40;;;;;;;27.77;16.48;;;7.10;99.90;;;;;;5029911;28;20026;-88
2022/01/23 15:55:08;;;;;;;25.48;14.75;;;7.00;99.90;;;;;;5028920;28;20021;-87
2022/01/23 15:57:34;;;;;;;23.80;14.57;;;7.10;99.90;;;;;;5030191;28;20037;-88
2022/01/23 16:00:00;;;;;;;21.40;13.18;;;6.90;99.90;;;;;;5029184;28;20028;-88
2022/01/23 16:02:26;;;;;;;23.35;13.93;;;6.80;99.90;;;;;;5030294;28;20041;-90
2022/01/23 16:04:52;;;;;;;25.38;14.60;;;6.80;99.90;;;;;;5030201;28;20043;-87
2022/01/23 16:07:18;;;;;;;22.42;13.80;;;6.80;99.90;;;;;;5029777;28;20033;-87
2022/01/23 16:09:45;;;;;;;26.85;13.63;;;6.70;99.90;;;;;;5028685;28;20024;-87
2022/01/23 16:12:12;;;;;;;21.75;13.73;;;6.50;99.90;;;;;;5030209;28;20065;-88
2022/01/23 16:14:38;;;;;;;24.13;14.75;;;6.50;99.90;;;;;;5029821;28;20017;-88
2022/01/23 16:17:04;;;;;;;26.85;14.45;;;6.50;99.90;;;;;;5030248;28;20501;-87
2022/01/23 16:19:30;;;;;;;20.75;13.85;;;6.40;99.90;;;;;;5029058;28;20436;-87